sensor_id;sensor_type;location;lat;lon;timestamp;P1;durP1;ratioP1;P2;durP2;ratioP2
55114;SDS011;41010;53.252;5.786;2023-12-20T00:01:02;17.55;;;1.88;;
55114;SDS011;41010;53.252;5.786;2023-12-20T00:03:29;13.88;;;1.45;;
55114;SDS011;41010;53.252;5.786;2023-12-20T00:05:56;14.20;;;1.95;;
55114;SDS011;41010;53.252;5.786;2023-12-20T00:08:24;16.98;;;2.20;;
55114;SDS011;41010;53.252;5.786;2023-12-20T00:10:51;14.40;;;1.70;;
55114;SDS011;41010;53.252;5.786;2023-12-20T00:13:18;11.77;;;1.52;;
55114;SDS011;41010;53.252;5.786;2023-12-20T00:15:47;18.80;;;3.05;;
55114;SDS011;41010;53.252;5.786;2023-12-20T00:18:14;17.23;;;2.38;;
55114;SDS011;41010;53.252;5.786;2023-12-20T00:20:41;12.82;;;2.13;;
55114;SDS011;41010;53.252;5.786;2023-12-20T00:23:09;18.30;;;4.00;;
55114;SDS011;41010;53.252;5.786;2023-12-20T00:25:36;19.40;;;2.25;;
55114;SDS011;41010;53.252;5.786;2023-12-20T00:28:03;18.35;;;1.75;;
55114;SDS011;41010;53.252;5.786;2023-12-20T00:30:30;16.10;;;1.80;;
55114;SDS011;41010;53.252;5.786;2023-12-20T00:32:59;17.92;;;1.80;;
55114;SDS011;41010;53.252;5.786;2023-12-20T00:35:26;20.83;;;2.22;;
55114;SDS011;41010;53.252;5.786;2023-12-20T00:37:54;23.02;;;2.17;;
55114;SDS011;41010;53.252;5.786;2023-12-20T00:40:21;20.23;;;1.60;;
55114;SDS011;41010;53.252;5.786;2023-12-20T00:42:48;20.73;;;2.25;;
55114;SDS011;41010;53.252;5.786;2023-12-20T00:45:15;17.52;;;2.60;;
55114;SDS011;41010;53.252;5.786;2023-12-20T00:47:43;19.88;;;2.15;;
55114;SDS011;41010;53.252;5.786;2023-12-20T00:50:11;23.40;;;2.83;;
55114;SDS011;41010;53.252;5.786;2023-12-20T00:52:38;17.67;;;2.63;;
55114;SDS011;41010;53.252;5.786;2023-12-20T00:55:06;15.90;;;1.90;;
55114;SDS011;41010;53.252;5.786;2023-12-20T00:57:33;17.48;;;2.97;;
55114;SDS011;41010;53.252;5.786;2023-12-20T01:00:01;14.88;;;1.85;;
55114;SDS011;41010;53.252;5.786;2023-12-20T01:02:28;21.00;;;2.80;;
55114;SDS011;41010;53.252;5.786;2023-12-20T01:04:55;20.98;;;2.08;;
55114;SDS011;41010;53.252;5.786;2023-12-20T01:07:24;17.15;;;1.98;;
55114;SDS011;41010;53.252;5.786;2023-12-20T01:09:54;12.30;;;1.63;;
55114;SDS011;41010;53.252;5.786;2023-12-20T01:12:21;17.05;;;1.58;;
55114;SDS011;41010;53.252;5.786;2023-12-20T01:14:49;22.80;;;1.92;;
55114;SDS011;41010;53.252;5.786;2023-12-20T01:17:16;20.02;;;1.95;;
55114;SDS011;41010;53.252;5.786;2023-12-20T01:19:43;26.40;;;2.50;;
55114;SDS011;41010;53.252;5.786;2023-12-20T01:22:10;16.67;;;1.98;;
55114;SDS011;41010;53.252;5.786;2023-12-20T01:24:39;25.52;;;2.58;;
55114;SDS011;41010;53.252;5.786;2023-12-20T01:27:07;22.10;;;2.53;;
55114;SDS011;41010;53.252;5.786;2023-12-20T01:29:34;30.60;;;2.85;;
55114;SDS011;41010;53.252;5.786;2023-12-20T01:32:02;30.55;;;3.42;;
55114;SDS011;41010;53.252;5.786;2023-12-20T01:34:29;41.78;;;3.47;;
55114;SDS011;41010;53.252;5.786;2023-12-20T01:36:56;24.98;;;2.17;;
55114;SDS011;41010;53.252;5.786;2023-12-20T01:39:24;31.48;;;3.25;;
55114;SDS011;41010;53.252;5.786;2023-12-20T01:41:52;19.90;;;2.25;;
55114;SDS011;41010;53.252;5.786;2023-12-20T01:44:19;25.70;;;2.20;;
55114;SDS011;41010;53.252;5.786;2023-12-20T01:46:47;38.05;;;3.50;;
55114;SDS011;41010;53.252;5.786;2023-12-20T01:49:14;34.35;;;3.30;;
55114;SDS011;41010;53.252;5.786;2023-12-20T01:51:41;27.38;;;3.25;;
55114;SDS011;41010;53.252;5.786;2023-12-20T01:54:09;29.45;;;3.30;;
55114;SDS011;41010;53.252;5.786;2023-12-20T01:56:36;35.35;;;3.55;;
55114;SDS011;41010;53.252;5.786;2023-12-20T01:59:05;26.92;;;4.45;;
55114;SDS011;41010;53.252;5.786;2023-12-20T02:07:02;22.60;;;2.55;;
55114;SDS011;41010;53.252;5.786;2023-12-20T02:09:30;40.47;;;3.42;;
55114;SDS011;41010;53.252;5.786;2023-12-20T02:11:58;33.83;;;3.13;;
55114;SDS011;41010;53.252;5.786;2023-12-20T02:14:27;26.65;;;2.85;;
55114;SDS011;41010;53.252;5.786;2023-12-20T02:16:54;29.98;;;3.38;;
55114;SDS011;41010;53.252;5.786;2023-12-20T02:19:21;26.15;;;4.35;;
55114;SDS011;41010;53.252;5.786;2023-12-20T02:21:50;30.50;;;3.58;;
55114;SDS011;41010;53.252;5.786;2023-12-20T02:24:31;27.75;;;3.08;;
55114;SDS011;41010;53.252;5.786;2023-12-20T02:26:58;26.15;;;3.42;;
55114;SDS011;41010;53.252;5.786;2023-12-20T02:29:25;24.98;;;3.50;;
55114;SDS011;41010;53.252;5.786;2023-12-20T02:31:53;23.65;;;3.17;;
55114;SDS011;41010;53.252;5.786;2023-12-20T02:34:20;44.47;;;4.03;;
55114;SDS011;41010;53.252;5.786;2023-12-20T02:36:48;30.67;;;2.75;;
55114;SDS011;41010;53.252;5.786;2023-12-20T02:39:16;33.55;;;4.18;;
55114;SDS011;41010;53.252;5.786;2023-12-20T02:41:43;26.23;;;2.90;;
55114;SDS011;41010;53.252;5.786;2023-12-20T02:44:11;45.50;;;5.03;;
55114;SDS011;41010;53.252;5.786;2023-12-20T02:46:38;25.48;;;2.83;;
55114;SDS011;41010;53.252;5.786;2023-12-20T02:49:05;29.73;;;2.72;;
55114;SDS011;41010;53.252;5.786;2023-12-20T02:51:33;33.15;;;3.25;;
55114;SDS011;41010;53.252;5.786;2023-12-20T02:54:03;35.78;;;3.75;;
55114;SDS011;41010;53.252;5.786;2023-12-20T02:56:32;32.35;;;3.65;;
55114;SDS011;41010;53.252;5.786;2023-12-20T02:58:59;25.23;;;3.28;;
55114;SDS011;41010;53.252;5.786;2023-12-20T03:01:26;26.98;;;3.10;;
55114;SDS011;41010;53.252;5.786;2023-12-20T03:03:54;24.25;;;3.58;;
55114;SDS011;41010;53.252;5.786;2023-12-20T03:06:21;43.00;;;3.20;;
55114;SDS011;41010;53.252;5.786;2023-12-20T03:08:48;37.92;;;3.65;;
55114;SDS011;41010;53.252;5.786;2023-12-20T03:11:16;26.40;;;2.50;;
55114;SDS011;41010;53.252;5.786;2023-12-20T03:13:44;25.27;;;2.80;;
55114;SDS011;41010;53.252;5.786;2023-12-20T03:16:12;29.58;;;2.60;;
55114;SDS011;41010;53.252;5.786;2023-12-20T03:18:41;25.70;;;2.90;;
55114;SDS011;41010;53.252;5.786;2023-12-20T03:21:08;28.08;;;3.65;;
55114;SDS011;41010;53.252;5.786;2023-12-20T03:23:36;24.77;;;3.85;;
55114;SDS011;41010;53.252;5.786;2023-12-20T03:26:03;28.27;;;3.55;;
55114;SDS011;41010;53.252;5.786;2023-12-20T03:28:33;19.80;;;2.78;;
55114;SDS011;41010;53.252;5.786;2023-12-20T03:31:02;35.75;;;5.47;;
55114;SDS011;41010;53.252;5.786;2023-12-20T03:33:29;23.95;;;4.15;;
55114;SDS011;41010;53.252;5.786;2023-12-20T03:35:57;23.23;;;2.72;;
55114;SDS011;41010;53.252;5.786;2023-12-20T03:38:24;26.10;;;2.80;;
55114;SDS011;41010;53.252;5.786;2023-12-20T03:40:51;33.17;;;3.35;;
55114;SDS011;41010;53.252;5.786;2023-12-20T03:43:18;30.90;;;3.47;;
55114;SDS011;41010;53.252;5.786;2023-12-20T03:45:46;27.15;;;3.17;;
55114;SDS011;41010;53.252;5.786;2023-12-20T03:48:14;27.70;;;2.47;;
55114;SDS011;41010;53.252;5.786;2023-12-20T03:50:42;23.67;;;3.17;;
55114;SDS011;41010;53.252;5.786;2023-12-20T03:53:09;34.92;;;3.03;;
55114;SDS011;41010;53.252;5.786;2023-12-20T03:55:36;24.40;;;2.67;;
55114;SDS011;41010;53.252;5.786;2023-12-20T03:58:03;24.60;;;2.50;;
55114;SDS011;41010;53.252;5.786;2023-12-20T04:00:30;27.58;;;2.70;;
55114;SDS011;41010;53.252;5.786;2023-12-20T04:02:58;27.95;;;3.20;;
55114;SDS011;41010;53.252;5.786;2023-12-20T04:05:26;27.00;;;2.67;;
55114;SDS011;41010;53.252;5.786;2023-12-20T04:07:54;39.30;;;3.70;;
55114;SDS011;41010;53.252;5.786;2023-12-20T04:10:21;30.85;;;2.97;;
55114;SDS011;41010;53.252;5.786;2023-12-20T04:12:48;20.90;;;3.13;;
55114;SDS011;41010;53.252;5.786;2023-12-20T04:15:15;22.98;;;2.70;;
55114;SDS011;41010;53.252;5.786;2023-12-20T04:17:43;33.63;;;2.80;;
55114;SDS011;41010;53.252;5.786;2023-12-20T04:20:10;21.20;;;2.65;;
55114;SDS011;41010;53.252;5.786;2023-12-20T04:22:39;21.85;;;2.80;;
55114;SDS011;41010;53.252;5.786;2023-12-20T04:25:07;20.02;;;2.83;;
55114;SDS011;41010;53.252;5.786;2023-12-20T04:27:35;31.88;;;3.05;;
55114;SDS011;41010;53.252;5.786;2023-12-20T04:30:02;15.75;;;2.80;;
55114;SDS011;41010;53.252;5.786;2023-12-20T04:32:30;32.85;;;3.00;;
55114;SDS011;41010;53.252;5.786;2023-12-20T04:34:57;30.75;;;3.25;;
55114;SDS011;41010;53.252;5.786;2023-12-20T04:37:24;25.15;;;3.28;;
55114;SDS011;41010;53.252;5.786;2023-12-20T04:39:53;22.45;;;3.03;;
55114;SDS011;41010;53.252;5.786;2023-12-20T04:42:21;32.08;;;4.30;;
55114;SDS011;41010;53.252;5.786;2023-12-20T04:44:48;26.35;;;3.25;;
55114;SDS011;41010;53.252;5.786;2023-12-20T04:47:15;35.55;;;4.38;;
55114;SDS011;41010;53.252;5.786;2023-12-20T04:49:43;34.92;;;3.38;;
55114;SDS011;41010;53.252;5.786;2023-12-20T04:52:10;23.45;;;2.83;;
55114;SDS011;41010;53.252;5.786;2023-12-20T04:54:37;25.90;;;2.92;;
55114;SDS011;41010;53.252;5.786;2023-12-20T04:57:06;30.35;;;3.08;;
55114;SDS011;41010;53.252;5.786;2023-12-20T04:59:33;32.45;;;3.50;;
55114;SDS011;41010;53.252;5.786;2023-12-20T05:02:00;26.73;;;3.00;;
55114;SDS011;41010;53.252;5.786;2023-12-20T05:04:27;25.10;;;3.45;;
55114;SDS011;41010;53.252;5.786;2023-12-20T05:06:55;23.98;;;3.40;;
55114;SDS011;41010;53.252;5.786;2023-12-20T05:09:22;32.22;;;3.97;;
55114;SDS011;41010;53.252;5.786;2023-12-20T05:11:49;28.35;;;3.78;;
55114;SDS011;41010;53.252;5.786;2023-12-20T05:14:18;34.53;;;4.40;;
55114;SDS011;41010;53.252;5.786;2023-12-20T05:16:45;30.88;;;4.50;;
55114;SDS011;41010;53.252;5.786;2023-12-20T05:19:12;27.83;;;3.22;;
55114;SDS011;41010;53.252;5.786;2023-12-20T05:21:39;33.80;;;3.22;;
55114;SDS011;41010;53.252;5.786;2023-12-20T05:24:07;25.33;;;3.33;;
55114;SDS011;41010;53.252;5.786;2023-12-20T05:26:34;36.03;;;3.67;;
55114;SDS011;41010;53.252;5.786;2023-12-20T05:29:01;30.20;;;2.80;;
55114;SDS011;41010;53.252;5.786;2023-12-20T05:31:30;23.73;;;2.80;;
55114;SDS011;41010;53.252;5.786;2023-12-20T05:33:58;27.50;;;2.75;;
55114;SDS011;41010;53.252;5.786;2023-12-20T05:36:25;29.13;;;3.72;;
55114;SDS011;41010;53.252;5.786;2023-12-20T05:38:53;21.48;;;3.03;;
55114;SDS011;41010;53.252;5.786;2023-12-20T05:41:20;28.08;;;3.05;;
55114;SDS011;41010;53.252;5.786;2023-12-20T05:43:48;26.83;;;3.55;;
55114;SDS011;41010;53.252;5.786;2023-12-20T05:46:15;27.98;;;3.47;;
55114;SDS011;41010;53.252;5.786;2023-12-20T05:48:44;22.10;;;3.03;;
55114;SDS011;41010;53.252;5.786;2023-12-20T05:51:11;17.42;;;2.45;;
55114;SDS011;41010;53.252;5.786;2023-12-20T05:53:39;29.08;;;3.33;;
55114;SDS011;41010;53.252;5.786;2023-12-20T05:56:06;29.90;;;3.00;;
55114;SDS011;41010;53.252;5.786;2023-12-20T05:58:33;22.60;;;2.90;;
55114;SDS011;41010;53.252;5.786;2023-12-20T06:01:01;21.80;;;3.05;;
55114;SDS011;41010;53.252;5.786;2023-12-20T06:03:30;25.08;;;3.08;;
55114;SDS011;41010;53.252;5.786;2023-12-20T06:05:59;31.48;;;2.72;;
55114;SDS011;41010;53.252;5.786;2023-12-20T06:08:27;19.08;;;3.03;;
55114;SDS011;41010;53.252;5.786;2023-12-20T06:10:54;17.17;;;2.65;;
55114;SDS011;41010;53.252;5.786;2023-12-20T06:13:22;31.13;;;3.85;;
55114;SDS011;41010;53.252;5.786;2023-12-20T06:15:49;29.67;;;3.40;;
55114;SDS011;41010;53.252;5.786;2023-12-20T06:18:16;21.92;;;2.78;;
55114;SDS011;41010;53.252;5.786;2023-12-20T06:20:43;26.65;;;3.58;;
55114;SDS011;41010;53.252;5.786;2023-12-20T06:23:12;35.72;;;3.67;;
55114;SDS011;41010;53.252;5.786;2023-12-20T06:25:39;23.80;;;4.32;;
55114;SDS011;41010;53.252;5.786;2023-12-20T06:28:07;26.88;;;3.70;;
55114;SDS011;41010;53.252;5.786;2023-12-20T06:30:35;29.52;;;2.88;;
55114;SDS011;41010;53.252;5.786;2023-12-20T06:33:02;20.50;;;3.72;;
55114;SDS011;41010;53.252;5.786;2023-12-20T06:35:31;22.23;;;3.45;;
55114;SDS011;41010;53.252;5.786;2023-12-20T06:37:59;30.55;;;4.40;;
55114;SDS011;41010;53.252;5.786;2023-12-20T06:40:28;31.70;;;4.47;;
55114;SDS011;41010;53.252;5.786;2023-12-20T06:42:55;31.20;;;3.25;;
55114;SDS011;41010;53.252;5.786;2023-12-20T06:45:22;31.52;;;4.53;;
55114;SDS011;41010;53.252;5.786;2023-12-20T06:47:49;27.90;;;3.33;;
55114;SDS011;41010;53.252;5.786;2023-12-20T06:50:17;19.42;;;3.10;;
55114;SDS011;41010;53.252;5.786;2023-12-20T06:52:44;34.70;;;4.03;;
55114;SDS011;41010;53.252;5.786;2023-12-20T06:55:11;30.05;;;3.85;;
55114;SDS011;41010;53.252;5.786;2023-12-20T06:57:40;24.00;;;3.45;;
55114;SDS011;41010;53.252;5.786;2023-12-20T07:00:07;31.48;;;3.25;;
55114;SDS011;41010;53.252;5.786;2023-12-20T07:02:35;28.85;;;2.88;;
55114;SDS011;41010;53.252;5.786;2023-12-20T07:05:03;19.60;;;2.70;;
55114;SDS011;41010;53.252;5.786;2023-12-20T07:07:30;26.33;;;3.92;;
55114;SDS011;41010;53.252;5.786;2023-12-20T07:09:57;26.80;;;3.10;;
55114;SDS011;41010;53.252;5.786;2023-12-20T07:12:25;25.30;;;3.58;;
55114;SDS011;41010;53.252;5.786;2023-12-20T07:14:53;23.58;;;2.83;;
55114;SDS011;41010;53.252;5.786;2023-12-20T07:17:21;18.63;;;3.20;;
55114;SDS011;41010;53.252;5.786;2023-12-20T07:19:48;23.77;;;3.13;;
55114;SDS011;41010;53.252;5.786;2023-12-20T07:22:15;21.38;;;2.33;;
55114;SDS011;41010;53.252;5.786;2023-12-20T07:24:42;37.28;;;4.25;;
55114;SDS011;41010;53.252;5.786;2023-12-20T07:27:11;31.05;;;3.45;;
55114;SDS011;41010;53.252;5.786;2023-12-20T07:29:38;32.35;;;4.07;;
55114;SDS011;41010;53.252;5.786;2023-12-20T07:32:07;31.55;;;3.08;;
55114;SDS011;41010;53.252;5.786;2023-12-20T07:34:34;19.27;;;2.65;;
55114;SDS011;41010;53.252;5.786;2023-12-20T07:37:01;29.40;;;3.72;;
55114;SDS011;41010;53.252;5.786;2023-12-20T07:39:29;22.77;;;3.10;;
55114;SDS011;41010;53.252;5.786;2023-12-20T07:41:56;24.45;;;3.13;;
55114;SDS011;41010;53.252;5.786;2023-12-20T07:44:23;28.02;;;3.10;;
55114;SDS011;41010;53.252;5.786;2023-12-20T07:46:50;27.42;;;3.22;;
55114;SDS011;41010;53.252;5.786;2023-12-20T07:49:20;31.05;;;3.70;;
55114;SDS011;41010;53.252;5.786;2023-12-20T07:51:47;22.05;;;3.95;;
55114;SDS011;41010;53.252;5.786;2023-12-20T07:54:15;20.33;;;2.50;;
55114;SDS011;41010;53.252;5.786;2023-12-20T07:56:42;15.07;;;1.77;;
55114;SDS011;41010;53.252;5.786;2023-12-20T07:59:09;18.70;;;1.95;;
55114;SDS011;41010;53.252;5.786;2023-12-20T08:01:37;14.70;;;2.05;;
55114;SDS011;41010;53.252;5.786;2023-12-20T08:04:04;13.30;;;1.58;;
55114;SDS011;41010;53.252;5.786;2023-12-20T08:06:33;12.77;;;1.60;;
55114;SDS011;41010;53.252;5.786;2023-12-20T08:09:00;16.95;;;2.22;;
55114;SDS011;41010;53.252;5.786;2023-12-20T08:11:28;22.05;;;2.53;;
55114;SDS011;41010;53.252;5.786;2023-12-20T08:13:57;24.75;;;2.95;;
55114;SDS011;41010;53.252;5.786;2023-12-20T08:16:24;31.02;;;3.95;;
55114;SDS011;41010;53.252;5.786;2023-12-20T08:18:51;27.52;;;4.03;;
55114;SDS011;41010;53.252;5.786;2023-12-20T08:21:18;24.83;;;2.65;;
55114;SDS011;41010;53.252;5.786;2023-12-20T08:23:49;29.45;;;4.13;;
55114;SDS011;41010;53.252;5.786;2023-12-20T08:26:18;24.63;;;2.92;;
55114;SDS011;41010;53.252;5.786;2023-12-20T08:28:47;27.63;;;4.43;;
55114;SDS011;41010;53.252;5.786;2023-12-20T08:31:15;37.38;;;3.88;;
55114;SDS011;41010;53.252;5.786;2023-12-20T08:33:42;22.98;;;3.42;;
55114;SDS011;41010;53.252;5.786;2023-12-20T08:36:10;33.10;;;3.97;;
55114;SDS011;41010;53.252;5.786;2023-12-20T08:38:37;21.95;;;3.92;;
55114;SDS011;41010;53.252;5.786;2023-12-20T08:41:06;21.80;;;3.10;;
55114;SDS011;41010;53.252;5.786;2023-12-20T08:43:33;21.60;;;3.60;;
55114;SDS011;41010;53.252;5.786;2023-12-20T08:46:01;14.60;;;1.83;;
55114;SDS011;41010;53.252;5.786;2023-12-20T08:48:28;6.18;;;0.70;;
55114;SDS011;41010;53.252;5.786;2023-12-20T08:50:55;11.50;;;1.25;;
55114;SDS011;41010;53.252;5.786;2023-12-20T08:53:23;9.80;;;1.83;;
55114;SDS011;41010;53.252;5.786;2023-12-20T08:55:50;18.33;;;4.75;;
55114;SDS011;41010;53.252;5.786;2023-12-20T08:58:18;21.48;;;6.03;;
55114;SDS011;41010;53.252;5.786;2023-12-20T09:00:46;21.42;;;4.30;;
55114;SDS011;41010;53.252;5.786;2023-12-20T09:03:13;15.15;;;3.03;;
55114;SDS011;41010;53.252;5.786;2023-12-20T09:05:40;5.30;;;0.85;;
55114;SDS011;41010;53.252;5.786;2023-12-20T09:08:08;12.75;;;1.52;;
55114;SDS011;41010;53.252;5.786;2023-12-20T09:10:35;11.57;;;1.35;;
55114;SDS011;41010;53.252;5.786;2023-12-20T09:13:03;15.27;;;1.17;;
55114;SDS011;41010;53.252;5.786;2023-12-20T09:15:31;13.52;;;1.20;;
55114;SDS011;41010;53.252;5.786;2023-12-20T09:17:59;17.33;;;1.42;;
55114;SDS011;41010;53.252;5.786;2023-12-20T09:20:26;15.65;;;1.27;;
55114;SDS011;41010;53.252;5.786;2023-12-20T09:22:54;20.23;;;1.90;;
55114;SDS011;41010;53.252;5.786;2023-12-20T09:25:21;32.33;;;1.88;;
55114;SDS011;41010;53.252;5.786;2023-12-20T09:27:48;20.60;;;1.80;;
55114;SDS011;41010;53.252;5.786;2023-12-20T09:30:16;13.32;;;1.55;;
55114;SDS011;41010;53.252;5.786;2023-12-20T09:32:44;18.27;;;1.60;;
55114;SDS011;41010;53.252;5.786;2023-12-20T09:35:12;10.77;;;1.65;;
55114;SDS011;41010;53.252;5.786;2023-12-20T09:37:40;9.85;;;1.20;;
55114;SDS011;41010;53.252;5.786;2023-12-20T09:40:11;9.60;;;1.33;;
55114;SDS011;41010;53.252;5.786;2023-12-20T09:42:43;8.10;;;1.13;;
55114;SDS011;41010;53.252;5.786;2023-12-20T09:45:15;8.35;;;0.88;;
55114;SDS011;41010;53.252;5.786;2023-12-20T09:47:45;8.60;;;1.13;;
55114;SDS011;41010;53.252;5.786;2023-12-20T09:50:12;15.50;;;1.40;;
55114;SDS011;41010;53.252;5.786;2023-12-20T09:52:40;6.70;;;0.88;;
55114;SDS011;41010;53.252;5.786;2023-12-20T09:55:08;14.50;;;1.30;;
55114;SDS011;41010;53.252;5.786;2023-12-20T09:57:36;18.48;;;1.80;;
55114;SDS011;41010;53.252;5.786;2023-12-20T10:00:03;10.55;;;1.30;;
55114;SDS011;41010;53.252;5.786;2023-12-20T10:02:32;12.95;;;1.60;;
55114;SDS011;41010;53.252;5.786;2023-12-20T10:05:00;12.82;;;1.70;;
55114;SDS011;41010;53.252;5.786;2023-12-20T10:07:28;11.18;;;1.83;;
55114;SDS011;41010;53.252;5.786;2023-12-20T10:09:55;10.35;;;1.50;;
55114;SDS011;41010;53.252;5.786;2023-12-20T10:12:23;12.68;;;1.80;;
55114;SDS011;41010;53.252;5.786;2023-12-20T10:14:50;18.58;;;2.22;;
55114;SDS011;41010;53.252;5.786;2023-12-20T10:17:18;22.45;;;5.10;;
55114;SDS011;41010;53.252;5.786;2023-12-20T10:19:45;17.10;;;3.10;;
55114;SDS011;41010;53.252;5.786;2023-12-20T10:22:14;24.40;;;3.00;;
55114;SDS011;41010;53.252;5.786;2023-12-20T10:24:42;15.75;;;1.60;;
55114;SDS011;41010;53.252;5.786;2023-12-20T10:27:09;12.95;;;1.70;;
55114;SDS011;41010;53.252;5.786;2023-12-20T10:29:37;18.65;;;1.40;;
55114;SDS011;41010;53.252;5.786;2023-12-20T10:32:23;16.58;;;2.22;;
55114;SDS011;41010;53.252;5.786;2023-12-20T10:34:50;13.77;;;2.03;;
55114;SDS011;41010;53.252;5.786;2023-12-20T10:37:19;8.68;;;2.20;;
55114;SDS011;41010;53.252;5.786;2023-12-20T10:39:47;21.10;;;2.78;;
55114;SDS011;41010;53.252;5.786;2023-12-20T10:42:17;16.88;;;2.83;;
55114;SDS011;41010;53.252;5.786;2023-12-20T10:44:45;14.35;;;2.15;;
55114;SDS011;41010;53.252;5.786;2023-12-20T10:47:13;17.50;;;1.83;;
55114;SDS011;41010;53.252;5.786;2023-12-20T10:49:40;13.98;;;1.55;;
55114;SDS011;41010;53.252;5.786;2023-12-20T10:52:09;19.02;;;1.42;;
55114;SDS011;41010;53.252;5.786;2023-12-20T10:54:39;18.27;;;1.58;;
55114;SDS011;41010;53.252;5.786;2023-12-20T10:57:07;11.00;;;1.70;;
55114;SDS011;41010;53.252;5.786;2023-12-20T10:59:35;12.43;;;1.30;;
55114;SDS011;41010;53.252;5.786;2023-12-20T11:02:03;12.73;;;2.00;;
55114;SDS011;41010;53.252;5.786;2023-12-20T11:04:35;14.82;;;2.42;;
55114;SDS011;41010;53.252;5.786;2023-12-20T11:07:08;17.20;;;1.65;;
55114;SDS011;41010;53.252;5.786;2023-12-20T11:09:43;12.95;;;1.77;;
55114;SDS011;41010;53.252;5.786;2023-12-20T11:12:13;17.33;;;2.15;;
55114;SDS011;41010;53.252;5.786;2023-12-20T11:14:43;8.68;;;1.27;;
55114;SDS011;41010;53.252;5.786;2023-12-20T11:17:13;13.32;;;1.70;;
55114;SDS011;41010;53.252;5.786;2023-12-20T11:22:30;13.25;;;1.42;;
55114;SDS011;41010;53.252;5.786;2023-12-20T11:25:00;14.35;;;2.17;;
55114;SDS011;41010;53.252;5.786;2023-12-20T11:27:29;13.25;;;1.73;;
55114;SDS011;41010;53.252;5.786;2023-12-20T11:29:57;12.70;;;1.75;;
55114;SDS011;41010;53.252;5.786;2023-12-20T11:32:29;13.63;;;1.48;;
55114;SDS011;41010;53.252;5.786;2023-12-20T11:34:57;17.48;;;2.15;;
55114;SDS011;41010;53.252;5.786;2023-12-20T11:37:28;13.57;;;1.13;;
55114;SDS011;41010;53.252;5.786;2023-12-20T11:40:01;13.40;;;2.25;;
55114;SDS011;41010;53.252;5.786;2023-12-20T11:42:32;10.13;;;1.23;;
55114;SDS011;41010;53.252;5.786;2023-12-20T11:45:01;16.85;;;2.13;;
55114;SDS011;41010;53.252;5.786;2023-12-20T11:47:29;14.25;;;1.95;;
55114;SDS011;41010;53.252;5.786;2023-12-20T11:49:57;13.25;;;1.58;;
55114;SDS011;41010;53.252;5.786;2023-12-20T11:52:25;16.00;;;1.65;;
55114;SDS011;41010;53.252;5.786;2023-12-20T11:54:53;17.77;;;2.30;;
55114;SDS011;41010;53.252;5.786;2023-12-20T11:57:21;11.55;;;1.42;;
55114;SDS011;41010;53.252;5.786;2023-12-20T11:59:49;25.20;;;2.83;;
55114;SDS011;41010;53.252;5.786;2023-12-20T12:02:16;16.67;;;2.38;;
55114;SDS011;41010;53.252;5.786;2023-12-20T12:04:43;14.93;;;1.60;;
55114;SDS011;41010;53.252;5.786;2023-12-20T12:07:10;16.23;;;2.95;;
55114;SDS011;41010;53.252;5.786;2023-12-20T12:09:38;12.90;;;1.67;;
55114;SDS011;41010;53.252;5.786;2023-12-20T12:12:06;14.90;;;1.45;;
55114;SDS011;41010;53.252;5.786;2023-12-20T12:14:35;19.83;;;1.90;;
55114;SDS011;41010;53.252;5.786;2023-12-20T12:17:02;12.63;;;2.05;;
55114;SDS011;41010;53.252;5.786;2023-12-20T12:19:30;21.58;;;1.75;;
55114;SDS011;41010;53.252;5.786;2023-12-20T12:22:04;14.93;;;1.52;;
55114;SDS011;41010;53.252;5.786;2023-12-20T12:24:32;17.27;;;2.47;;
55114;SDS011;41010;53.252;5.786;2023-12-20T12:26:59;15.90;;;2.00;;
55114;SDS011;41010;53.252;5.786;2023-12-20T12:29:27;8.70;;;1.00;;
55114;SDS011;41010;53.252;5.786;2023-12-20T12:31:55;9.13;;;1.40;;
55114;SDS011;41010;53.252;5.786;2023-12-20T12:34:23;14.60;;;1.95;;
55114;SDS011;41010;53.252;5.786;2023-12-20T12:36:51;16.15;;;1.60;;
55114;SDS011;41010;53.252;5.786;2023-12-20T12:39:19;12.23;;;1.23;;
55114;SDS011;41010;53.252;5.786;2023-12-20T12:41:46;12.60;;;1.40;;
55114;SDS011;41010;53.252;5.786;2023-12-20T12:44:14;6.75;;;0.98;;
55114;SDS011;41010;53.252;5.786;2023-12-20T12:46:41;14.38;;;1.77;;
55114;SDS011;41010;53.252;5.786;2023-12-20T12:49:10;10.85;;;1.13;;
55114;SDS011;41010;53.252;5.786;2023-12-20T12:51:37;12.85;;;1.65;;
55114;SDS011;41010;53.252;5.786;2023-12-20T12:54:04;10.60;;;1.10;;
55114;SDS011;41010;53.252;5.786;2023-12-20T12:56:32;7.13;;;0.93;;
55114;SDS011;41010;53.252;5.786;2023-12-20T12:58:59;5.18;;;0.85;;
55114;SDS011;41010;53.252;5.786;2023-12-20T13:01:26;9.75;;;1.20;;
55114;SDS011;41010;53.252;5.786;2023-12-20T13:03:54;7.40;;;0.90;;
55114;SDS011;41010;53.252;5.786;2023-12-20T13:06:21;5.95;;;0.85;;
55114;SDS011;41010;53.252;5.786;2023-12-20T13:08:48;10.05;;;0.93;;
55114;SDS011;41010;53.252;5.786;2023-12-20T13:11:16;6.85;;;0.85;;
55114;SDS011;41010;53.252;5.786;2023-12-20T13:13:43;9.35;;;2.05;;
55114;SDS011;41010;53.252;5.786;2023-12-20T13:16:10;7.03;;;0.68;;
55114;SDS011;41010;53.252;5.786;2023-12-20T13:18:38;4.97;;;0.70;;
55114;SDS011;41010;53.252;5.786;2023-12-20T13:21:07;8.48;;;0.90;;
55114;SDS011;41010;53.252;5.786;2023-12-20T13:23:36;8.23;;;0.73;;
55114;SDS011;41010;53.252;5.786;2023-12-20T13:26:03;11.00;;;1.17;;
55114;SDS011;41010;53.252;5.786;2023-12-20T13:28:31;3.60;;;0.70;;
55114;SDS011;41010;53.252;5.786;2023-12-20T13:30:58;7.80;;;0.98;;
55114;SDS011;41010;53.252;5.786;2023-12-20T13:33:25;5.43;;;1.23;;
55114;SDS011;41010;53.252;5.786;2023-12-20T13:35:52;10.43;;;1.15;;
55114;SDS011;41010;53.252;5.786;2023-12-20T13:38:21;6.70;;;0.70;;
55114;SDS011;41010;53.252;5.786;2023-12-20T13:40:49;10.48;;;1.40;;
55114;SDS011;41010;53.252;5.786;2023-12-20T13:43:17;10.13;;;1.08;;
55114;SDS011;41010;53.252;5.786;2023-12-20T13:45:46;9.30;;;1.08;;
55114;SDS011;41010;53.252;5.786;2023-12-20T13:48:13;6.60;;;0.85;;
55114;SDS011;41010;53.252;5.786;2023-12-20T13:50:40;9.23;;;0.90;;
55114;SDS011;41010;53.252;5.786;2023-12-20T13:53:07;12.48;;;1.08;;
55114;SDS011;41010;53.252;5.786;2023-12-20T13:55:35;11.88;;;1.10;;
55114;SDS011;41010;53.252;5.786;2023-12-20T13:58:03;9.27;;;1.10;;
55114;SDS011;41010;53.252;5.786;2023-12-20T14:00:31;15.23;;;1.33;;
55114;SDS011;41010;53.252;5.786;2023-12-20T14:02:58;11.55;;;1.42;;
55114;SDS011;41010;53.252;5.786;2023-12-20T14:05:25;15.30;;;1.00;;
55114;SDS011;41010;53.252;5.786;2023-12-20T14:07:53;5.80;;;0.77;;
55114;SDS011;41010;53.252;5.786;2023-12-20T14:10:22;15.43;;;1.48;;
55114;SDS011;41010;53.252;5.786;2023-12-20T14:12:51;14.80;;;1.10;;
55114;SDS011;41010;53.252;5.786;2023-12-20T14:15:20;11.27;;;1.67;;
55114;SDS011;41010;53.252;5.786;2023-12-20T14:17:50;10.02;;;1.27;;
55114;SDS011;41010;53.252;5.786;2023-12-20T14:20:18;12.13;;;0.90;;
55114;SDS011;41010;53.252;5.786;2023-12-20T14:22:45;12.60;;;1.55;;
55114;SDS011;41010;53.252;5.786;2023-12-20T14:25:13;21.08;;;1.90;;
55114;SDS011;41010;53.252;5.786;2023-12-20T14:27:40;13.50;;;1.25;;
55114;SDS011;41010;53.252;5.786;2023-12-20T14:30:09;14.55;;;1.35;;
55114;SDS011;41010;53.252;5.786;2023-12-20T14:32:40;18.00;;;1.90;;
55114;SDS011;41010;53.252;5.786;2023-12-20T14:35:08;16.98;;;1.25;;
55114;SDS011;41010;53.252;5.786;2023-12-20T14:37:35;12.60;;;2.95;;
55114;SDS011;41010;53.252;5.786;2023-12-20T14:40:05;23.92;;;1.75;;
55114;SDS011;41010;53.252;5.786;2023-12-20T14:42:35;18.48;;;2.00;;
55114;SDS011;41010;53.252;5.786;2023-12-20T14:45:03;24.85;;;2.50;;
55114;SDS011;41010;53.252;5.786;2023-12-20T14:47:31;21.77;;;1.67;;